Time;durP1;ratioP1;P1;durP2;ratioP2;P2;SDS_P1;SDS_P2;PMS_P1;PMS_P2;Temp;Humidity;BMP_temperature;BMP_pressure;BME280_temperature;BME280_humidity;BME280_pressure;Samples;Min_cycle;Max_cycle;Signal;HPM_P1;HPM_P2
2022/12/25 00:02:05;;;;;;;33.90;17.00;;;;;;;5.95;81.21;98994.30;103535;1298;99237;-68
2022/12/25 00:04:33;;;;;;;33.60;17.20;;;;;;;5.95;81.21;98997.15;103428;1295;108138;-67
2022/12/25 00:07:03;;;;;;;34.10;16.60;;;;;;;5.95;81.22;99002.61;103448;1299;99237;-68
2022/12/25 00:09:31;;;;;;;38.70;19.30;;;;;;;5.94;81.05;99007.75;103349;1301;99272;-68
2022/12/25 00:11:59;;;;;;;36.80;18.20;;;;;;;5.95;81.26;99012.80;103345;1300;113137;-67
2022/12/25 00:14:27;;;;;;;39.30;19.00;;;;;;;5.94;81.05;99017.94;103314;1301;99130;-68
2022/12/25 00:16:56;;;;;;;35.90;18.70;;;;;;;5.94;81.21;99023.80;103405;1296;110358;-67
2022/12/25 00:19:24;;;;;;;42.70;18.20;;;;;;;5.92;81.04;99029.17;103417;1300;99194;-68
2022/12/25 00:21:52;;;;;;;41.00;20.00;;;;;;;5.90;80.96;99030.89;103476;1299;96543;-68
2022/12/25 00:24:23;;;;;;;40.40;20.40;;;;;;;5.86;81.06;99025.98;103240;1302;112288;-67
2022/12/25 00:26:51;;;;;;;38.90;19.10;;;;;;;5.82;81.11;99023.20;103264;1294;99233;-68
2022/12/25 00:29:19;;;;;;;38.70;18.60;;;;;;;5.77;80.98;99031.35;103250;1298;108060;-68
2022/12/25 00:31:49;;;;;;;40.20;19.20;;;;;;;5.75;80.90;99038.53;103465;1299;99227;-68
2022/12/25 00:34:17;;;;;;;35.70;17.10;;;;;;;5.73;80.92;99041.48;104922;1299;96783;-69
2022/12/25 00:36:50;;;;;;;42.10;18.50;;;;;;;5.70;81.07;99046.89;104024;1299;110862;-67
2022/12/25 00:39:18;;;;;;;37.90;18.60;;;;;;;5.68;80.91;99049.80;103313;1294;99255;-67
2022/12/25 00:44:34;;;;;;;37.80;18.00;;;;;;;5.66;81.15;99063.79;104627;1292;99215;-68
2022/12/25 00:47:05;;;;;;;41.30;18.20;;;;;;;5.66;81.07;99066.08;104213;1301;99292;-68
2022/12/25 00:49:34;;;;;;;39.70;19.10;;;;;;;5.65;81.03;99071.23;103526;1291;112152;-68
2022/12/25 00:52:06;;;;;;;37.80;18.60;;;;;;;5.66;80.93;99074.02;103396;1294;99063;-67
2022/12/25 00:54:38;;;;;;;38.50;18.90;;;;;;;5.66;81.07;99072.42;103487;1285;108090;-68
2022/12/25 00:57:06;;;;;;;36.80;18.00;;;;;;;5.65;80.89;99071.95;103506;1299;99306;-68
2022/12/25 00:59:35;;;;;;;40.30;17.70;;;;;;;5.62;81.10;99074.88;103265;1292;99998;-68
2022/12/25 01:02:22;;;;;;;37.10;17.90;;;;;;;5.62;81.01;99082.80;103412;1296;112873;-68
2022/12/25 01:04:57;;;;;;;38.30;17.90;;;;;;;5.60;81.10;99083.45;103452;1302;99334;-68
2022/12/25 01:07:29;;;;;;;41.10;18.40;;;;;;;5.58;80.96;99079.16;103484;1301;107433;-66
2022/12/25 01:12:44;;;;;;;37.10;18.80;;;;;;;5.52;81.07;99085.83;103502;1294;96563;-67
2022/12/25 01:15:13;;;;;;;38.90;20.10;;;;;;;5.48;80.98;99087.05;103505;1299;113230;-66
2022/12/25 01:17:46;;;;;;;40.80;19.50;;;;;;;5.45;81.03;99077.89;103443;1300;99244;-67
2022/12/25 01:20:17;;;;;;;37.90;18.00;;;;;;;5.44;81.21;99084.66;103294;1294;108166;-67
2022/12/25 01:22:45;;;;;;;40.70;20.40;;;;;;;5.40;81.04;99085.55;103303;1301;99340;-68
2022/12/25 01:25:16;;;;;;;42.80;19.20;;;;;;;5.36;81.06;99085.05;103315;1298;96559;-67
2022/12/25 01:27:44;;;;;;;40.40;19.50;;;;;;;5.32;81.05;99093.64;103367;1292;113161;-67
2022/12/25 01:30:15;;;;;;;37.30;19.40;;;;;;;5.29;80.95;99092.45;103411;1299;99352;-67
2022/12/25 01:32:43;;;;;;;40.40;20.00;;;;;;;5.26;81.05;99096.45;103424;1292;108063;-68
2022/12/25 01:35:11;;;;;;;40.10;19.30;;;;;;;5.23;81.11;99106.78;103490;1295;99342;-69
2022/12/25 01:37:38;;;;;;;38.00;19.80;;;;;;;5.20;80.94;99108.50;103483;1292;99348;-68
2022/12/25 01:40:10;;;;;;;47.00;21.00;;;;;;;5.15;80.95;99105.58;103504;1298;113292;-68
2022/12/25 01:42:38;;;;;;;37.20;19.40;;;;;;;5.15;80.91;99106.11;103437;1297;99351;-68
2022/12/25 01:45:43;;;;;;;39.00;19.10;;;;;;;5.11;81.08;99102.09;103434;1302;107865;-67
2022/12/25 01:48:32;;;;;;;40.80;19.50;;;;;;;5.10;80.86;99105.17;103331;1285;99329;-68
2022/12/25 01:51:28;;;;;;;39.30;18.60;;;;;;;5.05;80.97;99114.35;103298;1302;99151;-68
2022/12/25 01:54:04;;;;;;;41.50;19.80;;;;;;;5.02;81.18;99124.14;103509;1298;113085;-68
2022/12/25 01:56:37;;;;;;;36.70;17.40;;;;;;;5.02;81.13;99111.16;103493;1292;99227;-67
2022/12/25 01:59:10;;;;;;;37.80;18.30;;;;;;;5.01;81.13;99098.37;103496;1297;107621;-67
2022/12/25 02:01:41;;;;;;;;;;;;;;;5.00;81.10;99098.95;103494;1294;99214;-67
2022/12/25 02:04:37;;;;;;;40.10;16.70;;;;;;;4.98;81.14;99100.99;103497;1302;99331;-66
2022/12/25 02:07:12;;;;;;;36.80;16.00;;;;;;;4.98;81.15;99111.18;103483;1292;111917;-68
2022/12/25 02:09:44;;;;;;;36.10;16.30;;;;;;;4.98;81.14;99118.01;103520;1295;99327;-67
2022/12/25 02:12:20;;;;;;;43.10;17.70;;;;;;;4.99;81.09;99116.59;103479;1297;107999;-67
2022/12/25 02:15:03;;;;;;;39.90;16.20;;;;;;;5.00;81.21;99122.86;103369;1294;96542;-67
2022/12/25 02:17:58;;;;;;;33.00;15.40;;;;;;;5.00;81.15;99136.23;103457;1297;99345;-67
2022/12/25 02:20:46;;;;;;;36.60;16.40;;;;;;;5.01;81.15;99142.86;103314;1300;111962;-67
2022/12/25 02:23:36;;;;;;;39.80;16.00;;;;;;;5.03;81.01;99149.41;103481;1299;99241;-67
2022/12/25 02:26:20;;;;;;;34.20;14.20;;;;;;;5.06;81.26;99148.23;103488;1297;107986;-67
2022/12/25 02:29:00;;;;;;;;;;;;;;;5.10;81.12;99151.05;103508;1297;99283;-67
2022/12/25 02:31:47;;;;;;;38.20;15.50;;;;;;;5.11;81.16;99161.00;103370;1296;99272;-68
2022/12/25 02:34:46;;;;;;;38.00;16.40;;;;;;;5.14;81.13;99164.16;103335;1300;113133;-66
2022/12/25 02:37:33;;;;;;;34.20;15.80;;;;;;;5.17;81.08;99158.59;103498;1292;99778;-66
2022/12/25 02:40:35;;;;;;;41.40;17.60;;;;;;;5.19;81.18;99153.23;103296;1292;106455;-69
2022/12/25 03:07:22;;;;;;;41.50;16.30;;;;;;;5.09;81.18;99152.70;103334;1294;99180;-69
2022/12/25 03:13:18;;;;;;;35.30;16.00;;;;;;;5.07;81.15;99173.15;103363;1300;99324;-67
2022/12/25 03:18:40;;;;;;;32.80;15.20;;;;;;;5.05;81.17;99183.94;103334;1294;113133;-67
2022/12/25 03:26:54;;;;;;;33.50;14.40;;;;;;;5.09;81.25;99205.25;103226;1310;99217;-68
2022/12/25 03:32:42;;;;;;;33.40;14.10;;;;;;;5.10;81.50;99207.64;103496;1297;112782;-67
2022/12/25 03:35:44;;;;;;;31.90;14.90;;;;;;;5.10;81.42;99212.02;103501;1301;99344;-67
2022/12/25 04:36:11;;;;;;;34.60;16.40;;;;;;;5.37;81.27;99248.70;103280;1292;108165;-67
2022/12/25 04:38:45;;;;;;;35.60;15.30;;;;;;;5.36;81.33;99251.92;103356;1295;96610;-68
2022/12/25 04:41:16;;;;;;;33.00;15.50;;;;;;;5.35;81.32;99253.54;103472;1284;99236;-68
2022/12/25 04:43:44;;;;;;;39.20;16.80;;;;;;;5.35;81.36;99260.90;103450;1294;112851;-68
2022/12/25 04:46:12;;;;;;;35.80;16.70;;;;;;;5.36;81.29;99259.66;103324;1302;111080;-68
2022/12/25 04:48:42;;;;;;;37.20;17.70;;;;;;;5.36;81.14;99253.83;103480;1295;108182;-67
2022/12/25 04:51:18;;;;;;;41.50;18.50;;;;;;;5.37;81.26;99251.01;103249;1300;98297;-67
2022/12/25 04:53:51;;;;;;;35.80;17.70;;;;;;;5.36;81.32;99245.21;103441;1294;99252;-67
2022/12/25 04:56:22;;;;;;;35.40;18.30;;;;;;;5.35;81.17;99245.79;103496;1292;112562;-67
2022/12/25 04:58:50;;;;;;;34.90;17.40;;;;;;;5.34;81.29;99244.77;103448;1300;99244;-67
2022/12/25 05:01:18;;;;;;;38.00;18.30;;;;;;;5.34;81.23;99245.31;103466;1298;107964;-66
2022/12/25 05:03:50;;;;;;;36.20;16.90;;;;;;;5.34;81.23;99251.14;103421;1302;99796;-67
2022/12/25 05:06:19;;;;;;;40.90;18.20;;;;;;;5.35;81.22;99255.30;103469;1294;99309;-67
2022/12/25 05:08:47;;;;;;;38.40;16.70;;;;;;;5.35;81.06;99262.86;103509;1294;113045;-68
2022/12/25 05:11:18;;;;;;;37.30;18.40;;;;;;;5.35;81.25;99270.43;103500;1284;99356;-68
2022/12/25 05:13:50;;;;;;;39.00;18.60;;;;;;;5.35;81.30;99268.99;103479;1302;107761;-68
2022/12/25 05:16:22;;;;;;;36.30;17.20;;;;;;;5.37;81.18;99273.50;103494;1294;99185;-69
2022/12/25 05:18:53;;;;;;;37.80;18.80;;;;;;;5.37;81.27;99274.71;103441;1292;99092;-68
2022/12/25 05:21:22;;;;;;;37.40;19.80;;;;;;;5.36;81.17;99273.52;103428;1302;113202;-67
2022/12/25 05:23:54;;;;;;;43.50;19.70;;;;;;;5.38;81.22;99274.53;103411;1294;99314;-67
2022/12/25 05:26:27;;;;;;;41.80;20.50;;;;;;;5.38;81.25;99273.48;103445;1294;107948;-67
2022/12/25 05:28:55;;;;;;;32.60;15.70;;;;;;;5.38;81.23;99274.85;103451;1301;99300;-67
2022/12/25 05:31:26;;;;;;;40.40;19.60;;;;;;;5.39;81.24;99279.41;103500;1294;99905;-67
2022/12/25 05:33:54;;;;;;;41.90;21.50;;;;;;;5.40;81.22;99278.83;103278;1292;113135;-67
2022/12/25 05:36:23;;;;;;;44.30;21.00;;;;;;;5.40;81.16;99286.37;103335;1293;99294;-69
2022/12/25 05:38:51;;;;;;;37.00;19.30;;;;;;;5.42;81.22;99290.70;103446;1294;106993;-67
2022/12/25 05:41:19;;;;;;;43.40;21.80;;;;;;;5.41;81.11;99289.30;103327;1301;99325;-68
2022/12/25 05:43:47;;;;;;;38.60;20.00;;;;;;;5.43;81.28;99285.04;103343;1293;99229;-67
2022/12/25 05:46:15;;;;;;;42.40;20.20;;;;;;;5.45;81.36;99288.09;103334;1294;113289;-68
2022/12/25 05:48:44;;;;;;;44.10;19.10;;;;;;;5.46;81.12;99298.40;103267;1292;99141;-67
2022/12/25 05:51:16;;;;;;;43.50;19.80;;;;;;;5.47;81.20;99304.34;103263;1292;108074;-67
2022/12/25 05:53:44;;;;;;;44.10;19.10;;;;;;;5.47;81.37;99301.68;103386;1293;99234;-67
2022/12/25 05:56:13;;;;;;;43.50;20.80;;;;;;;5.49;81.29;99303.20;103480;1300;99262;-67
2022/12/25 05:58:41;;;;;;;38.90;19.40;;;;;;;5.49;81.34;99302.66;103484;1297;112820;-67
2022/12/25 06:01:13;;;;;;;37.90;19.00;;;;;;;5.51;81.29;99305.20;103338;1292;99247;-68
2022/12/25 06:03:45;;;;;;;46.90;21.10;;;;;;;5.53;81.18;99295.80;103444;1299;108609;-68
2022/12/25 06:06:14;;;;;;;36.90;19.00;;;;;;;5.53;81.08;99294.21;103374;1300;99329;-68
2022/12/25 06:08:44;;;;;;;43.00;19.30;;;;;;;5.54;81.26;99291.54;103376;1294;99308;-68
2022/12/25 06:11:15;;;;;;;41.70;20.20;;;;;;;5.56;81.30;99295.31;103352;1294;113089;-67
2022/12/25 06:13:51;;;;;;;38.50;19.00;;;;;;;5.58;81.28;99307.34;103338;1299;99302;-67
2022/12/25 06:16:19;;;;;;;40.70;19.00;;;;;;;5.59;81.17;99322.05;103328;1294;108121;-67
2022/12/25 06:18:53;;;;;;;40.10;19.40;;;;;;;5.59;81.27;99338.42;103220;1302;99917;-67
2022/12/25 06:21:23;;;;;;;38.20;19.00;;;;;;;5.56;81.10;99341.21;103424;1298;99208;-67
2022/12/25 06:23:51;;;;;;;41.20;19.10;;;;;;;5.53;81.14;99346.27;103281;1294;113436;-67
2022/12/25 06:26:20;;;;;;;38.90;20.30;;;;;;;5.49;81.19;99343.81;103285;1288;99292;-67
2022/12/25 06:28:54;;;;;;;41.70;21.00;;;;;;;5.49;81.25;99344.19;103308;1294;108420;-67
2022/12/25 06:31:25;;;;;;;43.30;20.10;;;;;;;5.51;81.16;99343.53;103405;1294;99394;-67
2022/12/25 06:33:54;;;;;;;46.50;23.60;;;;;;;5.52;81.20;99353.34;103285;1292;99214;-68
2022/12/25 06:36:28;;;;;;;44.50;20.30;;;;;;;5.52;81.03;99358.27;103451;1298;113016;-67
2022/12/25 06:39:01;;;;;;;37.50;19.10;;;;;;;5.51;81.15;99350.90;103300;1302;97617;-67
2022/12/25 06:41:31;;;;;;;44.30;21.20;;;;;;;5.51;81.20;99347.05;103453;1300;108186;-68
2022/12/25 06:44:01;;;;;;;38.80;19.20;;;;;;;5.50;81.28;99346.20;103271;1298;99223;-67
2022/12/25 06:46:33;;;;;;;43.50;21.10;;;;;;;5.51;81.25;99344.40;103274;1301;99324;-67
2022/12/25 06:49:01;;;;;;;38.80;18.40;;;;;;;5.51;81.31;99349.70;103303;1299;113046;-68
2022/12/25 06:51:33;;;;;;;39.50;20.60;;;;;;;5.53;81.20;99350.32;103243;1294;99134;-68
2022/12/25 06:54:04;;;;;;;39.40;19.00;;;;;;;5.55;81.11;99347.45;103315;1294;108424;-68
2022/12/25 06:56:34;;;;;;;38.40;19.00;;;;;;;5.56;81.21;99350.72;103208;1301;99175;-68
2022/12/25 06:59:07;;;;;;;41.90;20.20;;;;;;;5.57;81.20;99349.25;103337;1294;99311;-68
2022/12/25 07:01:51;;;;;;;38.60;20.30;;;;;;;5.58;81.37;99352.70;103368;1294;113023;-67
2022/12/25 07:04:41;;;;;;;38.60;18.50;;;;;;;5.60;81.35;99356.88;103393;1294;99311;-68
2022/12/25 07:07:13;;;;;;;38.30;19.20;;;;;;;5.60;81.15;99363.52;103379;1297;107159;-67
2022/12/25 07:09:41;;;;;;;38.50;20.40;;;;;;;5.62;81.22;99363.99;103347;1295;99340;-68
2022/12/25 07:12:12;;;;;;;38.70;20.40;;;;;;;5.62;81.16;99370.98;103254;1302;99191;-67
2022/12/25 07:14:40;;;;;;;43.80;19.90;;;;;;;5.64;81.28;99375.32;103385;1294;113541;-67
2022/12/25 07:17:08;;;;;;;39.40;20.30;;;;;;;5.64;81.20;99384.95;103399;1298;99302;-70
2022/12/25 07:19:37;;;;;;;35.20;18.10;;;;;;;5.67;81.11;99389.79;103459;1297;107305;-69
2022/12/25 07:22:16;;;;;;;37.00;18.30;;;;;;;5.69;81.34;99395.66;103411;1300;99327;-69
2022/12/25 07:24:44;;;;;;;37.00;18.50;;;;;;;5.72;81.19;99395.88;103297;1294;99230;-67
2022/12/25 07:27:13;;;;;;;37.10;19.00;;;;;;;5.73;81.30;99395.29;103360;1293;113352;-67
2022/12/25 07:29:43;;;;;;;40.60;18.90;;;;;;;5.75;81.22;99402.59;103446;1293;99252;-69
2022/12/25 07:32:11;;;;;;;40.60;18.30;;;;;;;5.77;81.21;99409.89;103398;1302;108014;-67
2022/12/25 07:34:42;;;;;;;36.50;17.50;;;;;;;5.78;81.22;99409.29;103366;1295;99222;-67
2022/12/25 07:37:10;;;;;;;37.70;19.50;;;;;;;5.81;81.21;99418.33;103333;1294;99217;-69
2022/12/25 07:39:39;;;;;;;39.40;19.40;;;;;;;5.83;81.33;99419.84;103277;1294;113540;-68
2022/12/25 07:42:10;;;;;;;36.10;18.90;;;;;;;5.84;81.07;99421.35;103471;1293;99828;-67
2022/12/25 07:44:49;;;;;;;37.50;19.70;;;;;;;5.85;81.31;99425.54;103481;1302;107837;-69
2022/12/25 07:47:17;;;;;;;37.10;19.10;;;;;;;5.87;81.23;99435.14;103355;1301;96475;-69
2022/12/25 07:49:45;;;;;;;37.40;19.50;;;;;;;5.90;81.18;99439.75;103317;1298;99882;-66
2022/12/25 07:52:15;;;;;;;35.40;18.40;;;;;;;5.91;81.25;99435.30;103342;1300;111816;-69
2022/12/25 07:54:45;;;;;;;40.60;19.00;;;;;;;5.90;81.20;99436.38;103348;1292;99304;-68
2022/12/25 07:57:14;;;;;;;38.20;19.30;;;;;;;5.92;81.36;99443.52;103404;1294;108221;-68
2022/12/25 07:59:42;;;;;;;37.80;18.80;;;;;;;5.94;81.28;99445.52;103326;1302;99226;-67
2022/12/25 08:02:10;;;;;;;37.90;17.20;;;;;;;5.96;81.40;99442.94;103325;1294;99266;-68
2022/12/25 08:04:39;;;;;;;33.60;17.70;;;;;;;5.99;81.12;99450.08;103266;1294;113154;-68
2022/12/25 08:07:06;;;;;;;35.30;17.80;;;;;;;5.99;81.17;99454.80;104803;1291;99223;-69
2022/12/25 08:09:35;;;;;;;38.60;18.10;;;;;;;6.00;81.17;99461.30;103387;1301;107718;-67
2022/12/25 08:12:05;;;;;;;39.50;18.30;;;;;;;6.01;81.22;99470.06;103324;1298;99301;-67
2022/12/25 08:14:33;;;;;;;38.50;17.80;;;;;;;6.02;81.15;99470.88;103460;1294;98110;-67
2022/12/25 08:17:01;;;;;;;38.20;18.20;;;;;;;6.03;81.19;99472.77;103393;1299;112692;-66
2022/12/25 08:19:34;;;;;;;39.50;17.30;;;;;;;6.05;81.31;99474.80;103430;1302;99328;-67
2022/12/25 08:22:02;;;;;;;40.70;17.70;;;;;;;6.07;81.49;99477.67;103349;1292;108088;-67
2022/12/25 08:24:30;;;;;;;37.20;16.90;;;;;;;6.09;81.30;99478.11;103359;1292;99888;-66
2022/12/25 08:27:05;;;;;;;32.70;16.50;;;;;;;6.11;81.20;99484.51;103406;1298;99213;-67
2022/12/25 08:29:33;;;;;;;36.80;16.70;;;;;;;6.13;81.16;99482.86;103401;1294;111585;-68
2022/12/25 08:32:01;;;;;;;31.70;16.70;;;;;;;6.15;81.41;99489.10;103466;1294;97663;-67
2022/12/25 08:34:29;;;;;;;31.80;16.20;;;;;;;6.17;81.24;99498.37;103444;1294;108090;-68
2022/12/25 08:36:57;;;;;;;35.10;16.00;;;;;;;6.18;81.21;99503.08;103480;1294;99877;-67
2022/12/25 08:39:26;;;;;;;36.00;16.90;;;;;;;6.18;81.28;99501.49;103424;1300;99210;-68
2022/12/25 08:41:56;;;;;;;41.10;17.90;;;;;;;6.19;81.28;99497.22;103327;1288;113148;-68
2022/12/25 08:44:24;;;;;;;37.10;18.50;;;;;;;6.19;81.25;99496.48;103347;1302;99104;-68
2022/12/25 08:46:54;;;;;;;36.70;18.30;;;;;;;6.21;81.22;99494.80;103332;1294;107836;-67
2022/12/25 08:49:27;;;;;;;41.80;20.80;;;;;;;6.21;81.23;99495.15;103350;1294;100863;-68
2022/12/25 08:51:55;;;;;;;40.60;21.00;;;;;;;6.22;81.52;99495.11;103372;1302;99328;-68
2022/12/25 08:54:24;;;;;;;45.50;22.40;;;;;;;6.24;81.39;99494.83;103338;1294;112794;-68
2022/12/25 08:56:52;;;;;;;41.60;22.20;;;;;;;6.28;81.38;99494.52;103404;1301;99319;-68
2022/12/25 08:59:29;;;;;;;44.80;23.70;;;;;;;6.29;81.35;99506.95;103366;1294;107383;-68
2022/12/25 09:01:58;;;;;;;46.10;24.50;;;;;;;6.29;81.32;99506.41;103375;1294;99319;-68
2022/12/25 09:04:32;;;;;;;47.60;25.50;;;;;;;6.30;81.35;99513.42;103452;1285;99225;-68
2022/12/25 09:07:01;;;;;;;49.40;26.20;;;;;;;6.32;81.46;99512.07;103367;1292;112588;-67
2022/12/25 09:09:30;;;;;;;47.20;25.60;;;;;;;6.33;81.31;99513.25;103404;1294;99263;-67
2022/12/25 09:11:58;;;;;;;49.80;24.60;;;;;;;6.35;81.32;99517.41;103415;1294;108920;-68
2022/12/25 09:14:29;;;;;;;43.90;23.20;;;;;;;6.38;81.40;99517.63;103489;1301;99289;-67
2022/12/25 09:16:57;;;;;;;44.50;23.70;;;;;;;6.39;81.36;99522.84;103412;1284;99220;-67
2022/12/25 09:19:25;;;;;;;46.60;24.60;;;;;;;6.40;81.36;99524.21;103356;1294;112841;-67
2022/12/25 09:21:54;;;;;;;46.90;24.60;;;;;;;6.43;81.30;99527.60;103247;1294;99394;-67
2022/12/25 09:24:28;;;;;;;50.90;25.90;;;;;;;6.46;81.46;99531.89;103242;1302;108798;-66
2022/12/25 09:26:56;;;;;;;44.00;24.10;;;;;;;6.46;81.23;99532.21;103326;1301;99308;-65
2022/12/25 09:29:24;;;;;;;44.60;27.10;;;;;;;6.48;81.20;99532.63;103415;1301;99203;-65
2022/12/25 09:31:52;;;;;;;42.00;23.10;;;;;;;6.48;81.07;99530.69;103390;1300;113107;-65
2022/12/25 09:34:20;;;;;;;42.20;23.90;;;;;;;6.45;81.17;99526.95;103430;1292;99303;-66
2022/12/25 09:36:49;;;;;;;44.90;26.00;;;;;;;6.45;81.27;99524.70;103357;1292;110480;-67
2022/12/25 09:39:20;;;;;;;47.90;26.40;;;;;;;6.46;81.36;99518.31;103244;1301;99237;-67
2022/12/25 09:42:08;;;;;;;46.10;24.00;;;;;;;6.48;81.16;99516.23;103400;1292;99188;-66
2022/12/25 09:44:43;;;;;;;47.80;25.70;;;;;;;6.53;81.50;99512.80;103241;1292;112821;-68
2022/12/25 09:47:16;;;;;;;46.90;26.70;;;;;;;6.58;81.46;99512.09;103268;1292;99252;-69
2022/12/25 09:50:11;;;;;;;42.30;23.00;;;;;;;6.60;81.22;99514.63;103272;1298;107752;-69
2022/12/25 09:53:14;;;;;;;51.50;27.60;;;;;;;6.63;81.32;99511.65;103365;1294;97695;-67
2022/12/25 09:56:13;;;;;;;49.60;27.30;;;;;;;6.69;81.25;99510.14;103349;1294;99186;-67
2022/12/25 09:58:44;;;;;;;49.90;26.30;;;;;;;6.76;81.25;99519.13;103199;1298;113313;-68
2022/12/25 10:01:30;;;;;;;44.50;26.00;;;;;;;6.78;81.12;99528.36;103454;1294;99372;-68
2022/12/25 10:04:13;;;;;;;48.80;26.40;;;;;;;6.79;81.21;99532.21;103297;1292;108109;-67
2022/12/25 10:07:17;;;;;;;48.60;25.40;;;;;;;6.80;81.08;99537.98;103387;1299;99101;-69
2022/12/25 10:10:09;;;;;;;48.00;23.70;;;;;;;6.78;81.13;99552.71;103472;1286;99373;-67
2022/12/25 10:12:52;;;;;;;49.70;24.80;;;;;;;6.77;81.09;99561.03;103445;1294;112543;-67
2022/12/25 10:15:54;;;;;;;48.00;25.90;;;;;;;6.77;81.15;99561.23;103250;1284;99380;-66
2022/12/25 10:18:33;;;;;;;49.40;26.10;;;;;;;6.74;81.14;99572.28;103195;1292;108487;-67
2022/12/25 10:21:08;;;;;;;49.70;23.40;;;;;;;6.72;81.26;99576.27;103438;1292;99088;-66
2022/12/25 10:24:01;;;;;;;41.70;22.00;;;;;;;6.71;81.10;99579.64;103356;1295;99254;-66
2022/12/25 10:26:34;;;;;;;48.40;25.10;;;;;;;6.69;81.10;99582.94;103402;1298;113319;-67
2022/12/25 10:29:18;;;;;;;46.90;23.70;;;;;;;6.67;80.93;99582.48;103591;1299;96784;-67
2022/12/25 10:31:52;;;;;;;44.40;23.20;;;;;;;6.63;81.09;99577.55;103355;1292;107170;-67
2022/12/25 10:34:24;;;;;;;42.20;23.20;;;;;;;6.60;81.22;99571.02;103339;1294;96542;-66
2022/12/25 10:36:52;;;;;;;48.70;24.70;;;;;;;6.60;81.05;99572.97;103434;1302;99203;-66
2022/12/25 10:39:25;;;;;;;45.60;23.80;;;;;;;6.62;81.34;99576.38;103333;1293;112804;-67
2022/12/25 10:42:22;;;;;;;49.50;24.90;;;;;;;6.64;80.99;99584.41;103384;1294;99236;-66
2022/12/25 10:44:58;;;;;;;44.80;24.00;;;;;;;6.62;81.12;99579.89;103377;1294;108134;-66
2022/12/25 10:47:37;;;;;;;45.10;23.50;;;;;;;6.64;81.01;99577.16;103457;1294;99318;-67
2022/12/25 10:50:32;;;;;;;47.90;25.70;;;;;;;6.67;81.25;99573.34;103363;1294;99228;-66
2022/12/25 10:53:05;;;;;;;47.90;24.80;;;;;;;6.68;81.04;99568.33;103457;1301;113302;-67
2022/12/25 10:55:33;;;;;;;43.90;25.20;;;;;;;6.74;81.30;99574.39;103331;1300;99215;-67
2022/12/25 10:58:01;;;;;;;44.40;24.90;;;;;;;6.80;81.18;99586.23;103457;1292;107168;-67
2022/12/25 11:00:34;;;;;;;45.80;24.50;;;;;;;6.82;81.11;99584.22;103506;1302;99313;-67
2022/12/25 11:03:03;;;;;;;48.10;25.50;;;;;;;6.82;80.93;99579.44;103517;1294;99201;-67
2022/12/25 11:05:38;;;;;;;41.90;23.20;;;;;;;6.87;81.16;99579.25;103478;1297;112518;-68
2022/12/25 11:08:20;;;;;;;44.90;23.60;;;;;;;6.93;81.09;99580.52;103455;1299;99247;-67
2022/12/25 11:10:54;;;;;;;40.40;21.80;;;;;;;7.01;81.16;99578.88;103365;1285;107979;-67
2022/12/25 11:13:29;;;;;;;38.90;22.00;;;;;;;7.05;81.17;99580.09;103167;1294;99260;-67
2022/12/25 11:16:08;;;;;;;40.30;22.50;;;;;;;7.05;81.08;99579.05;103257;1297;99253;-69
2022/12/25 11:18:55;;;;;;;39.80;20.30;;;;;;;7.03;81.06;99581.95;105199;1288;112523;-67
2022/12/25 11:21:35;;;;;;;36.20;19.10;;;;;;;6.95;80.77;99577.07;104063;1294;99251;-70
2022/12/25 11:24:16;;;;;;;37.50;19.80;;;;;;;6.91;81.00;99570.95;103446;1300;107533;-68
2022/12/25 11:26:51;;;;;;;36.40;18.40;;;;;;;6.88;80.89;99572.48;104576;1299;99272;-67
2022/12/25 11:29:28;;;;;;;35.50;18.60;;;;;;;6.88;80.87;99569.16;104304;1300;96804;-68
2022/12/25 11:32:02;;;;;;;38.20;20.60;;;;;;;6.89;80.88;99567.52;103317;1294;113152;-67
2022/12/25 11:34:44;;;;;;;39.30;21.40;;;;;;;6.90;80.97;99564.30;103425;1285;96464;-68
2022/12/25 11:37:39;;;;;;;44.50;20.80;;;;;;;6.91;80.91;99558.39;103351;1294;109332;-67
2022/12/25 11:40:25;;;;;;;41.40;20.70;;;;;;;6.93;81.09;99557.05;103315;1299;99183;-66
2022/12/25 11:43:10;;;;;;;39.40;21.50;;;;;;;6.93;81.00;99558.33;103339;1292;99215;-66
2022/12/25 11:45:55;;;;;;;41.20;21.10;;;;;;;6.92;80.93;99555.01;103340;1294;111725;-66
2022/12/25 11:48:45;;;;;;;39.70;21.80;;;;;;;6.93;81.02;99554.25;103362;1292;99334;-67
2022/12/25 11:51:18;;;;;;;42.80;21.80;;;;;;;6.92;80.95;99554.80;103324;1294;107977;-66
2022/12/25 11:54:02;;;;;;;40.20;20.40;;;;;;;6.93;81.04;99553.02;103426;1295;99333;-66
2022/12/25 11:56:35;;;;;;;36.30;19.70;;;;;;;6.92;80.99;99549.38;103371;1298;96585;-67
2022/12/25 11:59:39;;;;;;;35.30;18.80;;;;;;;6.92;80.98;99551.32;103447;1292;112719;-67
2022/12/25 12:02:27;;;;;;;39.00;19.70;;;;;;;6.90;80.89;99547.71;103388;1298;99183;-67
2022/12/25 12:05:17;;;;;;;38.30;19.50;;;;;;;6.90;81.07;99544.54;103365;1291;107896;-67
2022/12/25 12:08:02;;;;;;;40.50;20.30;;;;;;;6.87;80.91;99544.31;103395;1294;96591;-71
2022/12/25 12:11:15;;;;;;;40.00;21.30;;;;;;;6.84;80.67;99542.35;103359;1301;99328;-68
2022/12/25 12:14:33;;;;;;;36.60;19.90;;;;;;;6.82;80.94;99542.42;103477;1300;113090;-67
2022/12/25 12:17:08;;;;;;;43.10;22.80;;;;;;;6.84;80.95;99540.04;103454;1291;99240;-67
2022/12/25 12:19:37;;;;;;;38.10;20.30;;;;;;;6.87;80.83;99533.05;103472;1297;107275;-68
2022/12/25 12:22:18;;;;;;;39.10;20.80;;;;;;;6.90;81.01;99532.70;103432;1305;99143;-67
2022/12/25 12:24:56;;;;;;;38.90;20.80;;;;;;;6.94;80.74;99535.67;103490;1297;96514;-67
2022/12/25 12:27:39;;;;;;;39.00;20.60;;;;;;;6.97;81.02;99537.66;103383;1305;113135;-67
2022/12/25 12:30:33;;;;;;;42.80;21.70;;;;;;;6.99;80.85;99544.63;103427;1294;96636;-68
2022/12/25 12:33:06;;;;;;;38.30;19.50;;;;;;;7.02;81.12;99535.29;103359;1302;107976;-68
2022/12/25 12:35:39;;;;;;;35.50;19.40;;;;;;;7.02;81.01;99528.95;103377;1294;99291;-69
2022/12/25 12:38:19;;;;;;;40.00;20.00;;;;;;;7.03;80.95;99533.11;103388;1292;99255;-68
2022/12/25 12:41:05;;;;;;;36.70;18.80;;;;;;;7.05;80.93;99535.68;103423;1294;112348;-68
2022/12/25 12:43:42;;;;;;;34.30;17.30;;;;;;;7.08;80.90;99538.50;103407;1300;97696;-68
2022/12/25 12:46:25;;;;;;;35.20;18.00;;;;;;;7.11;80.90;99538.55;103301;1297;107112;-70
2022/12/25 12:49:21;;;;;;;38.30;20.30;;;;;;;7.14;80.79;99541.54;103326;1288;99239;-67
2022/12/25 12:51:49;;;;;;;36.60;19.70;;;;;;;7.18;80.96;99539.95;103238;1300;99191;-67
2022/12/25 12:54:22;;;;;;;42.70;22.90;;;;;;;7.22;80.74;99537.25;103181;1294;112111;-67
2022/12/25 12:57:07;;;;;;;43.50;22.50;;;;;;;7.27;80.76;99537.89;103364;1292;99202;-68
2022/12/25 12:59:45;;;;;;;43.00;23.30;;;;;;;7.30;80.62;99539.17;103303;1292;107783;-69
2022/12/25 13:02:51;;;;;;;42.90;22.80;;;;;;;7.32;80.76;99543.13;103298;1294;97867;-68
2022/12/25 13:05:47;;;;;;;40.10;21.40;;;;;;;7.33;80.70;99546.58;103406;1294;99377;-68
2022/12/25 13:09:04;;;;;;;36.60;19.30;;;;;;;7.36;80.83;99548.38;103428;1285;111690;-68
2022/12/25 13:11:46;;;;;;;39.00;20.10;;;;;;;7.33;80.58;99558.41;103177;1301;99343;-69
2022/12/25 13:14:20;;;;;;;34.30;17.80;;;;;;;7.32;80.70;99562.02;103379;1294;108169;-68
2022/12/25 13:16:53;;;;;;;32.30;16.40;;;;;;;7.29;80.61;99558.42;103401;1299;99334;-67
2022/12/25 13:19:28;;;;;;;33.70;16.30;;;;;;;7.27;80.61;99557.85;103404;1297;99224;-69
2022/12/25 13:22:05;;;;;;;31.80;14.60;;;;;;;7.26;80.61;99559.10;103420;1293;112585;-68
2022/12/25 13:24:38;;;;;;;29.50;15.10;;;;;;;7.20;80.51;99568.78;103462;1292;99293;-68
2022/12/25 13:27:35;;;;;;;35.80;16.20;;;;;;;7.18;80.52;99570.45;103463;1298;107209;-69
2022/12/25 13:30:18;;;;;;;30.10;15.40;;;;;;;7.19;80.42;99577.98;103320;1294;99254;-69
2022/12/25 13:32:49;;;;;;;36.10;17.50;;;;;;;7.21;80.55;99576.32;103406;1294;100330;-67
2022/12/25 13:35:22;;;;;;;35.60;17.50;;;;;;;7.18;80.37;99578.41;103361;1294;113408;-68